Time;durP1;ratioP1;P1;durP2;ratioP2;P2;SDS_P1;SDS_P2;PMS_P1;PMS_P2;Temp;Humidity;BMP_temperature;BMP_pressure;BME280_temperature;BME280_humidity;BME280_pressure;Samples;Min_cycle;Max_cycle;Signal;HPM_P1;HPM_P2
2024/04/11 00:01:39;;;;;;;27.33;24.45;;;;;;;;;;5381082;26;19997;-43
2024/04/11 00:04:06;;;;;;;28.17;25.20;;;;;;;;;;5386644;26;19992;-36
2024/04/11 00:06:33;;;;;;;30.45;25.02;;;;;;;;;;5384478;26;20024;-37
2024/04/11 00:09:00;;;;;;;30.67;25.50;;;;;;;;;;5388983;26;19988;-37
2024/04/11 00:11:26;;;;;;;29.55;25.10;;;;;;;;;;5377438;26;19989;-37
2024/04/11 00:13:53;;;;;;;29.10;25.88;;;;;;;;;;5380356;26;20008;-36
2024/04/11 00:16:20;;;;;;;30.60;24.90;;;;;;;;;;5378575;26;20237;-39
2024/04/11 00:18:46;;;;;;;27.20;24.13;;;;;;;;;;5381012;26;20097;-45
2024/04/11 00:21:13;;;;;;;219.30;42.55;;;;;;;;;;5385417;26;20146;-39
2024/04/11 00:23:40;;;;;;;62.30;29.85;;;;;;;;;;5379621;26;19989;-49
2024/04/11 00:26:07;;;;;;;42.72;28.25;;;;;;;;;;5395043;26;19996;-44
2024/04/11 00:28:33;;;;;;;50.28;28.83;;;;;;;;;;5385458;26;20003;-42
2024/04/11 00:31:00;;;;;;;41.40;28.02;;;;;;;;;;5395612;26;19985;-36
2024/04/11 00:33:26;;;;;;;39.58;28.95;;;;;;;;;;5393043;26;20021;-42
2024/04/11 00:35:53;;;;;;;37.67;28.65;;;;;;;;;;5394745;26;19995;-42
2024/04/11 00:38:20;;;;;;;34.20;28.42;;;;;;;;;;5393076;26;20000;-41
2024/04/11 00:40:56;;;;;;;36.58;28.00;;;;;;;;;;5393208;26;20000;-41
2024/04/11 00:43:23;;;;;;;30.98;26.77;;;;;;;;;;5392698;26;20201;-45
2024/04/11 00:45:50;;;;;;;34.25;28.17;;;;;;;;;;5391186;26;20393;-43
2024/04/11 00:48:18;;;;;;;32.10;27.15;;;;;;;;;;5391255;26;19988;-38
2024/04/11 00:50:46;;;;;;;34.08;28.23;;;;;;;;;;5391346;26;19988;-38
2024/04/11 00:53:13;;;;;;;30.80;27.63;;;;;;;;;;5393528;26;20004;-43
2024/04/11 00:55:42;;;;;;;33.15;28.75;;;;;;;;;;5393934;26;19988;-39
2024/04/11 00:58:11;;;;;;;33.75;28.45;;;;;;;;;;5394264;26;19988;-39
2024/04/11 01:00:38;;;;;;;34.38;28.33;;;;;;;;;;5395763;26;19995;-40
2024/04/11 01:03:05;;;;;;;33.17;27.35;;;;;;;;;;5395696;26;20109;-46
2024/04/11 01:05:32;;;;;;;33.13;27.60;;;;;;;;;;5395876;26;20045;-42
2024/04/11 01:07:59;;;;;;;29.95;26.73;;;;;;;;;;5395746;26;19984;-43
2024/04/11 01:10:25;;;;;;;33.08;26.70;;;;;;;;;;5395508;26;20047;-48
2024/04/11 01:12:52;;;;;;;27.90;24.90;;;;;;;;;;5395381;26;20013;-45
2024/04/11 01:15:19;;;;;;;29.23;24.60;;;;;;;;;;5395353;26;19988;-44
2024/04/11 01:17:48;;;;;;;26.67;23.98;;;;;;;;;;5395028;26;19992;-42
2024/04/11 01:20:15;;;;;;;28.77;24.20;;;;;;;;;;5395269;26;19992;-47
2024/04/11 01:22:42;;;;;;;28.15;23.88;;;;;;;;;;5395215;26;19988;-39
2024/04/11 01:25:08;;;;;;;27.85;24.42;;;;;;;;;;5395139;26;19999;-38
2024/04/11 01:27:35;;;;;;;32.25;24.85;;;;;;;;;;5394149;26;19984;-42
2024/04/11 01:30:08;;;;;;;28.90;24.58;;;;;;;;;;5395166;26;20231;-42
2024/04/11 01:32:34;;;;;;;29.60;23.67;;;;;;;;;;5394952;26;19996;-38
2024/04/11 01:35:01;;;;;;;28.17;23.27;;;;;;;;;;5395108;26;19999;-43
2024/04/11 01:37:28;;;;;;;25.98;22.73;;;;;;;;;;5394871;26;19988;-47
2024/04/11 01:39:55;;;;;;;26.92;23.08;;;;;;;;;;5394916;26;20042;-42
2024/04/11 01:42:22;;;;;;;26.92;22.67;;;;;;;;;;5394922;26;19992;-46
2024/04/11 01:44:49;;;;;;;25.30;22.50;;;;;;;;;;5394971;26;19984;-41
2024/04/11 01:47:16;;;;;;;25.50;22.00;;;;;;;;;;5394769;26;19996;-42
2024/04/11 01:49:43;;;;;;;26.48;21.58;;;;;;;;;;5394911;26;19999;-42
2024/04/11 01:52:10;;;;;;;23.40;20.90;;;;;;;;;;5394704;26;19992;-43
2024/04/11 01:54:39;;;;;;;24.10;21.55;;;;;;;;;;5394726;26;20078;-52
2024/04/11 01:57:07;;;;;;;23.23;20.40;;;;;;;;;;5394611;26;20092;-45
2024/04/11 01:59:33;;;;;;;26.83;20.08;;;;;;;;;;5394709;26;20218;-42
2024/04/11 02:02:07;;;;;;;23.48;19.88;;;;;;;;;;5394558;26;19984;-42
2024/04/11 02:04:34;;;;;;;22.30;19.60;;;;;;;;;;5394491;26;19999;-42
2024/04/11 02:07:04;;;;;;;24.45;20.70;;;;;;;;;;5394540;26;19999;-47
2024/04/11 02:09:31;;;;;;;21.98;19.63;;;;;;;;;;5393666;26;20200;-46
2024/04/11 02:11:58;;;;;;;22.83;20.38;;;;;;;;;;5394455;26;19992;-41
2024/04/11 02:14:24;;;;;;;22.85;20.42;;;;;;;;;;5394383;26;19988;-42
2024/04/11 02:16:54;;;;;;;24.42;20.10;;;;;;;;;;5394168;26;20004;-43
2024/04/11 02:19:21;;;;;;;23.70;19.75;;;;;;;;;;5394898;26;19992;-43
2024/04/11 02:21:48;;;;;;;27.10;19.67;;;;;;;;;;5394639;26;19998;-48
2024/04/11 02:24:17;;;;;;;24.52;19.00;;;;;;;;;;5394470;26;19988;-48
2024/04/11 02:26:52;;;;;;;24.60;19.35;;;;;;;;;;5394532;26;19995;-40
2024/04/11 02:29:20;;;;;;;22.42;20.10;;;;;;;;;;5394170;26;19988;-41
2024/04/11 02:31:47;;;;;;;22.98;20.15;;;;;;;;;;5394318;26;20021;-46
2024/04/11 02:34:32;;;;;;;21.77;19.52;;;;;;;;;;5394492;26;19988;-37
2024/04/11 02:36:59;;;;;;;23.60;19.45;;;;;;;;;;5392194;26;20200;-42
2024/04/11 02:39:26;;;;;;;23.40;19.38;;;;;;;;;;5395104;26;19988;-42
2024/04/11 02:41:52;;;;;;;21.25;18.88;;;;;;;;;;5395608;26;20197;-40
2024/04/11 02:44:19;;;;;;;23.92;18.67;;;;;;;;;;5395593;26;20295;-41
2024/04/11 02:46:46;;;;;;;21.85;18.42;;;;;;;;;;5395551;26;19999;-40
2024/04/11 02:49:13;;;;;;;20.48;18.27;;;;;;;;;;5395719;26;19992;-43
2024/04/11 02:51:40;;;;;;;25.05;18.42;;;;;;;;;;5395488;26;19988;-41
2024/04/11 02:54:07;;;;;;;20.92;18.83;;;;;;;;;;5395838;26;20038;-44
2024/04/11 02:56:34;;;;;;;21.50;18.60;;;;;;;;;;5395377;26;19988;-48
2024/04/11 02:59:01;;;;;;;19.52;17.60;;;;;;;;;;5395359;26;20000;-52
2024/04/11 03:01:31;;;;;;;20.50;18.17;;;;;;;;;;5396406;26;20003;-44
2024/04/11 03:03:59;;;;;;;20.58;17.98;;;;;;;;;;5397304;26;19988;-45
2024/04/11 03:06:26;;;;;;;24.52;18.25;;;;;;;;;;5397213;26;20098;-48
2024/04/11 03:08:56;;;;;;;19.80;17.80;;;;;;;;;;5397123;26;19995;-49
2024/04/11 03:11:25;;;;;;;19.50;17.30;;;;;;;;;;5396967;26;19996;-41
2024/04/11 03:14:00;;;;;;;21.48;18.25;;;;;;;;;;5397146;26;19992;-43
2024/04/11 03:16:31;;;;;;;20.10;17.90;;;;;;;;;;5396997;26;19995;-42
2024/04/11 03:18:59;;;;;;;18.80;16.90;;;;;;;;;;5396890;26;19991;-47
2024/04/11 03:21:26;;;;;;;19.42;17.35;;;;;;;;;;5397085;26;20200;-47
2024/04/11 03:23:53;;;;;;;21.17;18.83;;;;;;;;;;5397106;26;19991;-44
2024/04/11 03:26:20;;;;;;;21.35;18.30;;;;;;;;;;5396747;26;19996;-48
2024/04/11 03:28:46;;;;;;;29.63;19.35;;;;;;;;;;5397036;26;19999;-44
2024/04/11 03:31:17;;;;;;;25.20;19.50;;;;;;;;;;5396274;26;19996;-55
2024/04/11 03:33:46;;;;;;;30.38;21.33;;;;;;;;;;5362386;26;20154;-50
2024/04/11 03:36:13;;;;;;;28.83;21.58;;;;;;;;;;5396365;26;20002;-45
2024/04/11 03:38:40;;;;;;;33.80;23.25;;;;;;;;;;5397272;26;19996;-50
2024/04/11 03:41:13;;;;;;;32.38;23.50;;;;;;;;;;5396087;26;19991;-43
2024/04/11 03:43:41;;;;;;;27.75;23.92;;;;;;;;;;5394117;26;19995;-49
2024/04/11 03:46:23;;;;;;;26.40;21.67;;;;;;;;;;5393907;26;20041;-48
2024/04/11 03:48:56;;;;;;;22.85;20.20;;;;;;;;;;5394327;26;20193;-48
2024/04/11 03:51:29;;;;;;;25.20;19.38;;;;;;;;;;5389536;26;20009;-46
2024/04/11 03:53:56;;;;;;;21.40;19.20;;;;;;;;;;5374325;26;20101;-43
2024/04/11 03:56:27;;;;;;;23.23;19.35;;;;;;;;;;5393732;26;19996;-43
2024/04/11 03:58:58;;;;;;;20.52;18.38;;;;;;;;;;5396033;26;19984;-43
2024/04/11 04:01:26;;;;;;;22.73;18.75;;;;;;;;;;5396716;26;19992;-46
2024/04/11 04:03:54;;;;;;;21.17;18.95;;;;;;;;;;5396823;26;19988;-42
2024/04/11 04:06:21;;;;;;;20.00;18.00;;;;;;;;;;5395794;26;19996;-41
2024/04/11 04:08:48;;;;;;;20.30;18.00;;;;;;;;;;5396500;26;19989;-45
2024/04/11 04:11:15;;;;;;;19.65;17.73;;;;;;;;;;5396601;26;20204;-48
2024/04/11 04:13:42;;;;;;;19.70;17.80;;;;;;;;;;5396442;26;20205;-48
2024/04/11 04:16:14;;;;;;;20.58;18.33;;;;;;;;;;5396511;26;20000;-49
2024/04/11 04:18:42;;;;;;;21.67;17.92;;;;;;;;;;5396501;26;19992;-54
2024/04/11 04:21:08;;;;;;;19.92;18.00;;;;;;;;;;5396351;26;19996;-44
2024/04/11 04:23:35;;;;;;;21.23;18.52;;;;;;;;;;5396479;26;19992;-44
2024/04/11 04:26:04;;;;;;;22.20;18.45;;;;;;;;;;5395751;26;20046;-42
2024/04/11 04:28:35;;;;;;;22.90;19.63;;;;;;;;;;5396237;26;20104;-42
2024/04/11 04:31:37;;;;;;;25.20;20.23;;;;;;;;;;5396261;26;19992;-42
2024/04/11 04:34:04;;;;;;;25.27;20.92;;;;;;;;;;5394502;26;19992;-46
2024/04/11 04:36:40;;;;;;;24.42;21.60;;;;;;;;;;5367251;26;20009;-44
2024/04/11 04:39:07;;;;;;;23.92;20.27;;;;;;;;;;5389821;26;20101;-48
2024/04/11 04:41:34;;;;;;;21.70;19.05;;;;;;;;;;5396153;26;19996;-45
2024/04/11 04:44:02;;;;;;;22.83;19.92;;;;;;;;;;5396049;26;19988;-53
2024/04/11 04:46:30;;;;;;;22.05;19.80;;;;;;;;;;5396059;26;19997;-50
2024/04/11 04:48:58;;;;;;;20.75;18.65;;;;;;;;;;5396185;26;19999;-42
2024/04/11 04:51:26;;;;;;;23.88;19.88;;;;;;;;;;5395768;26;19990;-42
2024/04/11 04:53:53;;;;;;;20.08;18.02;;;;;;;;;;5396096;26;19992;-42
2024/04/11 04:56:23;;;;;;;20.77;17.75;;;;;;;;;;5395369;26;19996;-43
2024/04/11 04:58:52;;;;;;;20.40;18.30;;;;;;;;;;5395816;26;19987;-41
2024/04/11 05:01:20;;;;;;;19.83;17.80;;;;;;;;;;5394953;26;20073;-41
2024/04/11 05:03:48;;;;;;;22.92;18.50;;;;;;;;;;5395602;26;19984;-41
2024/04/11 05:06:15;;;;;;;20.27;17.60;;;;;;;;;;5395541;26;20045;-43
2024/04/11 05:08:53;;;;;;;20.38;17.52;;;;;;;;;;5395945;26;20088;-41
2024/04/11 05:11:21;;;;;;;20.00;17.85;;;;;;;;;;5395710;26;20088;-40
2024/04/11 05:13:49;;;;;;;20.33;18.15;;;;;;;;;;5395888;26;20000;-43
2024/04/11 05:16:19;;;;;;;19.58;17.27;;;;;;;;;;5395726;26;20045;-49
2024/04/11 05:18:46;;;;;;;19.77;17.58;;;;;;;;;;5395631;26;20004;-50
2024/04/11 05:21:24;;;;;;;19.98;18.02;;;;;;;;;;5395656;26;20041;-49
2024/04/11 05:23:51;;;;;;;21.38;17.85;;;;;;;;;;5395923;26;19988;-40
2024/04/11 05:26:23;;;;;;;21.08;17.77;;;;;;;;;;5395031;26;20000;-42
2024/04/11 05:28:51;;;;;;;20.20;18.27;;;;;;;;;;5395576;26;19995;-42
2024/04/11 05:31:23;;;;;;;19.75;17.70;;;;;;;;;;5395453;26;20204;-44
2024/04/11 05:33:53;;;;;;;21.58;18.80;;;;;;;;;;5395526;26;20000;-41
2024/04/11 05:36:24;;;;;;;20.98;18.63;;;;;;;;;;5395297;26;19995;-41
2024/04/11 05:38:52;;;;;;;20.58;18.15;;;;;;;;;;5395222;26;20086;-41
2024/04/11 05:41:18;;;;;;;20.08;17.95;;;;;;;;;;5395330;26;20050;-41
2024/04/11 05:43:49;;;;;;;20.10;18.13;;;;;;;;;;5395421;26;19992;-47
2024/04/11 05:46:19;;;;;;;20.83;17.63;;;;;;;;;;5395030;26;19988;-46
2024/04/11 05:48:52;;;;;;;19.92;17.90;;;;;;;;;;5395320;26;20045;-45
2024/04/11 05:51:20;;;;;;;21.27;18.25;;;;;;;;;;5395334;26;19992;-41
2024/04/11 05:53:47;;;;;;;20.00;18.10;;;;;;;;;;5395214;26;20209;-44
2024/04/11 05:56:15;;;;;;;20.45;18.30;;;;;;;;;;5394899;26;20081;-49
2024/04/11 05:58:45;;;;;;;19.90;17.80;;;;;;;;;;5395139;26;20039;-49
2024/04/11 06:01:16;;;;;;;20.35;18.25;;;;;;;;;;5394697;26;19988;-41
2024/04/11 06:03:51;;;;;;;21.33;19.02;;;;;;;;;;5395036;26;20031;-42
2024/04/11 06:06:21;;;;;;;21.27;17.67;;;;;;;;;;5394689;26;20247;-44
2024/04/11 06:08:48;;;;;;;20.50;18.33;;;;;;;;;;5394976;26;19988;-46
2024/04/11 06:11:17;;;;;;;20.55;18.55;;;;;;;;;;5394914;26;20004;-46
2024/04/11 06:13:46;;;;;;;20.02;18.10;;;;;;;;;;5396338;26;19984;-41
2024/04/11 06:16:14;;;;;;;20.13;18.33;;;;;;;;;;5398091;26;20054;-42
2024/04/11 06:18:40;;;;;;;20.55;18.55;;;;;;;;;;5398511;26;20034;-41
2024/04/11 06:21:07;;;;;;;19.77;17.67;;;;;;;;;;5397942;26;20197;-49
2024/04/11 06:23:35;;;;;;;22.05;18.13;;;;;;;;;;5398158;26;19999;-47
2024/04/11 06:26:02;;;;;;;19.98;17.98;;;;;;;;;;5398062;26;19999;-47
2024/04/11 06:28:28;;;;;;;22.10;18.23;;;;;;;;;;5397934;26;19995;-44
2024/04/11 06:30:55;;;;;;;20.38;18.10;;;;;;;;;;5398069;26;20004;-50
2024/04/11 06:33:22;;;;;;;21.00;18.95;;;;;;;;;;5398029;26;19988;-49
2024/04/11 06:35:51;;;;;;;21.08;18.92;;;;;;;;;;5397498;26;20007;-45
2024/04/11 06:38:20;;;;;;;22.13;18.85;;;;;;;;;;5397581;26;19997;-50
2024/04/11 06:40:54;;;;;;;21.38;19.17;;;;;;;;;;5397756;26;19988;-49
2024/04/11 06:43:25;;;;;;;21.90;19.67;;;;;;;;;;5397829;26;19988;-48
2024/04/11 06:45:51;;;;;;;22.20;20.10;;;;;;;;;;5397702;26;19992;-40
2024/04/11 06:48:21;;;;;;;21.27;19.27;;;;;;;;;;5397634;26;20008;-40
2024/04/11 06:50:49;;;;;;;21.25;19.13;;;;;;;;;;5397664;26;20205;-41
2024/04/11 06:53:17;;;;;;;22.75;20.50;;;;;;;;;;5397731;26;19995;-42
2024/04/11 06:55:46;;;;;;;22.00;19.83;;;;;;;;;;5397654;26;20012;-43
2024/04/11 06:58:17;;;;;;;23.17;20.77;;;;;;;;;;5397572;26;20000;-42
2024/04/11 07:00:44;;;;;;;22.33;20.30;;;;;;;;;;5397462;26;19992;-43
2024/04/11 07:03:16;;;;;;;22.15;20.05;;;;;;;;;;5393499;26;19998;-50
2024/04/11 07:05:56;;;;;;;22.00;19.88;;;;;;;;;;5397500;26;20092;-49
2024/04/11 07:08:30;;;;;;;21.98;19.67;;;;;;;;;;5397409;26;20085;-49
2024/04/11 07:10:58;;;;;;;21.35;19.15;;;;;;;;;;5397203;26;19995;-50
2024/04/11 07:13:30;;;;;;;22.17;20.08;;;;;;;;;;5397448;26;19988;-50
2024/04/11 07:15:58;;;;;;;;;;;;;;;;;;5397889;26;20000;-50
2024/04/11 07:18:34;;;;;;;21.50;19.23;;;;;;;;;;5397517;26;19929;-44
2024/04/11 07:21:02;;;;;;;20.30;18.25;;;;;;;;;;5396872;26;19988;-48
2024/04/11 07:23:29;;;;;;;20.80;18.30;;;;;;;;;;5396284;26;19996;-43
2024/04/11 07:25:55;;;;;;;19.67;17.65;;;;;;;;;;5396195;26;19996;-45
2024/04/11 07:28:24;;;;;;;18.38;16.58;;;;;;;;;;5397075;26;19992;-45
2024/04/11 07:30:50;;;;;;;20.02;17.35;;;;;;;;;;5397185;26;19994;-49
2024/04/11 07:33:17;;;;;;;19.63;17.58;;;;;;;;;;5397249;26;19992;-50
2024/04/11 07:35:43;;;;;;;18.30;16.58;;;;;;;;;;5396961;26;20007;-49
2024/04/11 07:38:10;;;;;;;19.08;17.13;;;;;;;;;;5397277;26;20007;-52
2024/04/11 07:40:45;;;;;;;19.45;16.55;;;;;;;;;;5397017;26;20209;-49
2024/04/11 07:43:13;;;;;;;18.60;16.80;;;;;;;;;;5396875;26;20008;-49
2024/04/11 07:45:44;;;;;;;17.88;16.17;;;;;;;;;;5396735;26;20093;-49
2024/04/11 07:48:12;;;;;;;18.95;16.75;;;;;;;;;;5396850;26;20219;-45
2024/04/11 07:50:39;;;;;;;17.65;15.98;;;;;;;;;;5396912;26;20008;-43
2024/04/11 07:53:15;;;;;;;16.42;14.65;;;;;;;;;;5396938;26;20008;-49
2024/04/11 07:55:49;;;;;;;17.17;15.57;;;;;;;;;;5396610;26;20054;-43
2024/04/11 07:58:19;;;;;;;18.60;15.80;;;;;;;;;;5396739;26;20211;-42
2024/04/11 08:00:49;;;;;;;17.83;16.17;;;;;;;;;;5396774;26;20235;-42
2024/04/11 08:03:17;;;;;;;17.27;15.68;;;;;;;;;;5396816;26;20041;-49
2024/04/11 08:05:47;;;;;;;18.75;15.55;;;;;;;;;;5396679;26;20259;-48
2024/04/11 08:08:15;;;;;;;17.27;15.40;;;;;;;;;;5396560;26;20000;-53
2024/04/11 08:10:42;;;;;;;16.92;15.10;;;;;;;;;;5396591;26;19992;-45
2024/04/11 08:16:12;;;;;;;17.08;15.27;;;;;;;;;;5396431;26;19994;-45
2024/04/11 08:18:39;;;;;;;16.77;15.13;;;;;;;;;;5396572;26;20105;-46
2024/04/11 08:21:09;;;;;;;18.27;16.13;;;;;;;;;;5396043;26;19984;-46
2024/04/11 08:23:36;;;;;;;18.27;16.42;;;;;;;;;;5396452;26;20049;-45
2024/04/11 08:26:03;;;;;;;17.52;15.68;;;;;;;;;;5396387;26;19988;-49
2024/04/11 08:28:29;;;;;;;18.10;16.30;;;;;;;;;;5396440;26;20008;-47
2024/04/11 08:30:56;;;;;;;18.83;17.02;;;;;;;;;;5396311;26;19984;-43
2024/04/11 08:33:23;;;;;;;19.45;17.50;;;;;;;;;;5396409;26;19999;-44
2024/04/11 08:35:52;;;;;;;18.77;16.88;;;;;;;;;;5395997;26;19988;-46
2024/04/11 08:38:23;;;;;;;19.40;17.50;;;;;;;;;;5396229;26;19996;-55
2024/04/11 08:40:50;;;;;;;19.33;17.27;;;;;;;;;;5395958;26;19988;-49
2024/04/11 08:43:20;;;;;;;19.38;17.45;;;;;;;;;;5396258;26;19992;-43
2024/04/11 08:45:47;;;;;;;19.00;17.13;;;;;;;;;;5396168;26;20215;-46
2024/04/11 08:48:13;;;;;;;22.52;17.52;;;;;;;;;;5395986;26;19993;-49
2024/04/11 08:50:46;;;;;;;19.13;17.33;;;;;;;;;;5396043;26;19988;-49
2024/04/11 08:53:17;;;;;;;18.52;16.73;;;;;;;;;;5396090;26;19991;-49
2024/04/11 08:55:44;;;;;;;19.45;17.58;;;;;;;;;;5395802;26;20004;-41
2024/04/11 08:58:11;;;;;;;19.42;17.33;;;;;;;;;;5395988;26;20021;-44
2024/04/11 09:00:41;;;;;;;19.00;17.10;;;;;;;;;;5395852;26;20216;-41
2024/04/11 09:03:11;;;;;;;19.02;17.23;;;;;;;;;;5395811;26;19988;-43
2024/04/11 09:05:38;;;;;;;20.55;17.33;;;;;;;;;;5395898;26;19991;-43
2024/04/11 09:08:05;;;;;;;18.88;16.98;;;;;;;;;;5395927;26;20254;-50
2024/04/11 09:10:32;;;;;;;19.08;17.23;;;;;;;;;;5395625;26;19992;-43
2024/04/11 09:12:59;;;;;;;19.33;17.42;;;;;;;;;;5395802;26;19996;-45
2024/04/11 09:15:26;;;;;;;19.48;17.42;;;;;;;;;;5395832;26;19984;-44
2024/04/11 09:17:55;;;;;;;19.80;17.38;;;;;;;;;;5395401;26;19988;-42
2024/04/11 09:20:24;;;;;;;19.52;17.50;;;;;;;;;;5395731;26;19985;-51
2024/04/11 09:22:51;;;;;;;19.50;17.25;;;;;;;;;;5395575;26;20021;-49
2024/04/11 09:25:26;;;;;;;19.50;17.55;;;;;;;;;;5395464;26;19984;-52
2024/04/11 09:27:58;;;;;;;18.88;16.88;;;;;;;;;;5395553;26;19985;-49
2024/04/11 09:30:34;;;;;;;19.35;17.30;;;;;;;;;;5395398;26;20037;-48
2024/04/11 09:33:04;;;;;;;19.38;17.20;;;;;;;;;;5395502;26;19992;-44
2024/04/11 09:35:40;;;;;;;17.65;15.95;;;;;;;;;;5395449;26;19991;-40
2024/04/11 09:38:10;;;;;;;19.02;16.30;;;;;;;;;;5395401;26;19988;-40
2024/04/11 09:40:38;;;;;;;17.95;15.93;;;;;;;;;;5395263;26;19999;-41
2024/04/11 09:43:06;;;;;;;17.83;15.93;;;;;;;;;;5395265;26;19985;-40
2024/04/11 09:45:36;;;;;;;16.30;14.77;;;;;;;;;;5395391;26;19992;-41
2024/04/11 09:48:04;;;;;;;16.23;14.52;;;;;;;;;;5394471;26;20049;-41
2024/04/11 09:50:31;;;;;;;15.98;14.50;;;;;;;;;;5395113;26;20012;-41
2024/04/11 09:52:59;;;;;;;16.65;14.82;;;;;;;;;;5395216;26;19988;-46
2024/04/11 09:55:36;;;;;;;16.88;14.45;;;;;;;;;;5395255;26;20243;-46
2024/04/11 09:58:06;;;;;;;16.23;14.55;;;;;;;;;;5394974;26;19984;-45
2024/04/11 10:01:04;;;;;;;15.43;13.70;;;;;;;;;;5395036;26;20093;-42
2024/04/11 10:03:33;;;;;;;19.02;14.77;;;;;;;;;;5395005;26;19995;-42
2024/04/11 10:06:01;;;;;;;19.98;15.15;;;;;;;;;;5394927;26;19984;-44
2024/04/11 10:08:34;;;;;;;19.48;14.93;;;;;;;;;;5394894;26;20048;-43
2024/04/11 10:11:07;;;;;;;17.60;15.60;;;;;;;;;;5394662;26;19984;-42
2024/04/11 10:13:41;;;;;;;17.38;14.95;;;;;;;;;;5394763;26;19996;-40
2024/04/11 10:16:38;;;;;;;18.92;15.85;;;;;;;;;;5394655;26;19996;-40
2024/04/11 10:19:07;;;;;;;19.15;15.32;;;;;;;;;;5394862;26;19988;-41
2024/04/11 10:21:37;;;;;;;17.33;15.43;;;;;;;;;;5394722;26;19988;-41
2024/04/11 10:24:14;;;;;;;17.08;15.27;;;;;;;;;;5394559;26;20044;-44
2024/04/11 10:26:42;;;;;;;19.85;15.80;;;;;;;;;;5394636;26;20205;-43
2024/04/11 10:29:18;;;;;;;22.23;16.33;;;;;;;;;;5394723;26;19996;-44
2024/04/11 10:31:45;;;;;;;19.02;16.70;;;;;;;;;;5394546;26;19996;-42
2024/04/11 10:34:25;;;;;;;20.02;16.90;;;;;;;;;;5394605;26;19988;-50
2024/04/11 10:36:56;;;;;;;24.20;17.10;;;;;;;;;;5386927;26;19997;-45
2024/04/11 10:39:23;;;;;;;21.92;17.15;;;;;;;;;;5394429;26;19995;-46
2024/04/11 10:41:51;;;;;;;24.98;17.75;;;;;;;;;;5394238;26;20004;-45
2024/04/11 10:44:21;;;;;;;23.60;17.75;;;;;;;;;;5394409;26;19988;-51
2024/04/11 10:46:47;;;;;;;21.75;17.90;;;;;;;;;;5394247;26;19999;-50
2024/04/11 10:49:28;;;;;;;26.20;18.20;;;;;;;;;;5394012;26;19992;-50
2024/04/11 10:51:58;;;;;;;25.10;17.85;;;;;;;;;;5394196;26;19985;-49
2024/04/11 10:54:30;;;;;;;23.88;18.30;;;;;;;;;;5394157;26;19984;-49
2024/04/11 10:56:58;;;;;;;22.67;18.10;;;;;;;;;;5393866;26;19995;-43
2024/04/11 10:59:27;;;;;;;22.58;18.05;;;;;;;;;;5380604;26;19989;-44
2024/04/11 11:02:02;;;;;;;27.38;18.48;;;;;;;;;;5362203;26;19993;-43
2024/04/11 11:04:32;;;;;;;24.27;19.15;;;;;;;;;;5362593;26;20016;-41
2024/04/11 11:07:01;;;;;;;23.15;18.83;;;;;;;;;;5362523;26;20043;-43
2024/04/11 11:09:28;;;;;;;21.98;18.75;;;;;;;;;;5392998;26;20016;-42
2024/04/11 11:11:55;;;;;;;26.23;19.15;;;;;;;;;;5396677;26;19999;-42
2024/04/11 11:14:24;;;;;;;24.02;19.30;;;;;;;;;;5362356;26;19993;-45
2024/04/11 11:16:51;;;;;;;28.60;19.75;;;;;;;;;;5361839;26;20210;-44
2024/04/11 11:19:18;;;;;;;22.90;19.58;;;;;;;;;;5362400;26;19997;-50
2024/04/11 11:21:51;;;;;;;22.25;19.25;;;;;;;;;;5362238;26;20009;-51
2024/04/11 11:24:25;;;;;;;29.25;20.70;;;;;;;;;;5362171;26;19991;-49
2024/04/11 11:26:56;;;;;;;23.92;18.95;;;;;;;;;;5362137;26;20013;-42
2024/04/11 11:29:27;;;;;;;53.42;48.95;;;;;;;;;;5363814;26;19985;-44
2024/04/11 11:32:01;;;;;;;39.22;33.05;;;;;;;;;;5396058;26;19997;-42
2024/04/11 11:34:30;;;;;;;28.45;25.23;;;;;;;;;;5397142;26;20031;-39
2024/04/11 11:37:03;;;;;;;31.48;24.88;;;;;;;;;;5396918;26;20124;-38
2024/04/11 11:39:33;;;;;;;34.00;24.30;;;;;;;;;;5396782;26;20027;-37
2024/04/11 11:42:08;;;;;;;28.92;23.92;;;;;;;;;;5394874;26;19988;-41
2024/04/11 11:47:33;;;;;;;26.25;23.52;;;;;;;;;;5390869;26;20054;-38
2024/04/11 11:50:07;;;;;;;25.52;22.98;;;;;;;;;;5389209;26;20050;-37
2024/04/11 11:52:40;;;;;;;27.58;22.50;;;;;;;;;;5393504;26;20046;-41
2024/04/11 11:55:07;;;;;;;24.20;21.65;;;;;;;;;;5393717;26;20009;-44
2024/04/11 11:57:40;;;;;;;23.27;20.65;;;;;;;;;;5393278;26;19999;-40
2024/04/11 12:00:22;;;;;;;27.33;22.27;;;;;;;;;;5393168;26;19992;-47
2024/04/11 12:02:53;;;;;;;24.05;20.45;;;;;;;;;;5392709;26;19996;-43
2024/04/11 12:05:27;;;;;;;23.67;20.95;;;;;;;;;;5394938;26;19988;-43
2024/04/11 12:07:54;;;;;;;25.88;20.25;;;;;;;;;;5396288;26;20097;-41
2024/04/11 12:10:29;;;;;;;24.30;21.02;;;;;;;;;;5395961;26;20197;-42
2024/04/11 12:13:30;;;;;;;22.42;19.58;;;;;;;;;;5389104;26;19988;-46
2024/04/11 12:15:48;;;;;;;22.15;19.55;;;;;;;;;;5376943;26;20017;-41
2024/04/11 12:18:16;;;;;;;24.70;19.52;;;;;;;;;;5396428;26;19992;-42
2024/04/11 12:20:46;;;;;;;27.35;19.42;;;;;;;;;;5396383;26;20046;-40
2024/04/11 12:23:14;;;;;;;52.08;23.67;;;;;;;;;;5396482;26;20356;-38
2024/04/11 12:25:41;;;;;;;57.25;23.27;;;;;;;;;;5396380;26;20092;-41
2024/04/11 12:28:09;;;;;;;38.45;20.70;;;;;;;;;;5396350;26;19992;-38
2024/04/11 12:30:38;;;;;;;34.05;19.98;;;;;;;;;;5396195;26;19998;-37
2024/04/11 12:33:05;;;;;;;26.05;19.48;;;;;;;;;;5396356;26;20042;-42
2024/04/11 12:35:41;;;;;;;25.40;18.92;;;;;;;;;;5394991;26;20093;-38
2024/04/11 12:38:13;;;;;;;20.40;18.30;;;;;;;;;;5396186;26;20173;-41
2024/04/11 12:40:41;;;;;;;22.02;18.83;;;;;;;;;;5394495;26;19996;-40
2024/04/11 12:43:08;;;;;;;22.88;19.00;;;;;;;;;;5386898;26;19992;-44
2024/04/11 12:45:38;;;;;;;22.02;19.17;;;;;;;;;;5376625;26;20093;-39
2024/04/11 12:48:07;;;;;;;22.17;19.90;;;;;;;;;;5361068;26;20156;-37
2024/04/11 12:50:37;;;;;;;21.33;19.20;;;;;;;;;;5375968;26;19996;-37
2024/04/11 12:53:12;;;;;;;21.83;19.52;;;;;;;;;;5396028;26;19988;-40
2024/04/11 12:55:39;;;;;;;25.35;19.98;;;;;;;;;;5395803;26;19992;-38
2024/04/11 12:58:10;;;;;;;28.80;20.85;;;;;;;;;;5394211;26;20004;-40
2024/04/11 13:00:57;;;;;;;25.95;19.90;;;;;;;;;;5395868;26;19988;-36
2024/04/11 13:03:52;;;;;;;22.45;20.08;;;;;;;;;;5395907;26;19992;-36
2024/04/11 13:06:22;;;;;;;23.70;20.80;;;;;;;;;;5393625;26;19992;-40
2024/04/11 13:08:50;;;;;;;23.90;21.10;;;;;;;;;;5394555;26;20053;-47
2024/04/11 13:11:36;;;;;;;28.17;20.58;;;;;;;;;;5393878;26;19999;-40
2024/04/11 13:14:10;;;;;;;24.23;21.00;;;;;;;;;;5380070;26;20000;-39
2024/04/11 13:17:00;;;;;;;23.50;21.10;;;;;;;;;;5380895;26;20020;-38
2024/04/11 13:19:36;;;;;;;24.60;21.20;;;;;;;;;;5360711;26;19989;-43
2024/04/11 13:22:03;;;;;;;26.17;23.50;;;;;;;;;;5360092;26;20000;-47
2024/04/11 13:25:18;;;;;;;28.45;25.27;;;;;;;;;;5360855;26;20148;-42
2024/04/11 13:27:28;;;;;;;28.77;25.80;;;;;;;;;;5376677;26;19998;-45
2024/04/11 13:30:11;;;;;;;55.72;31.00;;;;;;;;;;5386899;26;20005;-48
2024/04/11 13:32:40;;;;;;;34.17;28.95;;;;;;;;;;5360149;26;19989;-46
2024/04/11 13:35:13;;;;;;;35.30;29.67;;;;;;;;;;5360506;26;20005;-45
2024/04/11 13:37:47;;;;;;;33.05;29.33;;;;;;;;;;5359792;26;20097;-43
2024/04/11 13:42:55;;;;;;;36.55;32.95;;;;;;;;;;5360197;26;19989;-42
2024/04/11 13:45:24;;;;;;;34.60;30.73;;;;;;;;;;5385828;26;20028;-44
2024/04/11 13:47:55;;;;;;;36.03;32.30;;;;;;;;;;5392661;26;19992;-44
2024/04/11 13:50:34;;;;;;;35.58;31.98;;;;;;;;;;5391489;26;19993;-47
2024/04/11 13:53:07;;;;;;;35.45;30.13;;;;;;;;;;5379930;26;19993;-43
2024/04/11 13:55:41;;;;;;;34.75;30.05;;;;;;;;;;5371537;26;19991;-42
2024/04/11 13:58:21;;;;;;;34.03;30.63;;;;;;;;;;5372975;26;19993;-44
2024/04/11 14:00:51;;;;;;;35.97;32.28;;;;;;;;;;5379238;26;20046;-48
2024/04/11 14:03:25;;;;;;;35.33;31.63;;;;;;;;;;5395092;26;19996;-46
2024/04/11 14:08:42;;;;;;;39.55;35.60;;;;;;;;;;5388062;26;19996;-46
2024/04/11 14:11:09;;;;;;;44.78;38.78;;;;;;;;;;5375231;26;19989;-39
2024/04/11 14:13:41;;;;;;;46.33;38.08;;;;;;;;;;5359758;26;19989;-36
2024/04/11 14:16:11;;;;;;;44.00;38.70;;;;;;;;;;5359831;26;19996;-39
2024/04/11 14:18:47;;;;;;;42.55;38.28;;;;;;;;;;5359847;26;19996;-41
2024/04/11 14:21:48;;;;;;;42.92;38.53;;;;;;;;;;5359759;26;20153;-42
2024/04/11 14:24:15;;;;;;;46.63;42.00;;;;;;;;;;5359474;26;20069;-40
2024/04/11 14:29:21;;;;;;;45.60;40.78;;;;;;;;;;5359349;26;19996;-38
2024/04/11 14:31:49;;;;;;;47.28;42.30;;;;;;;;;;5359473;26;20009;-37
2024/04/11 14:34:40;;;;;;;46.47;41.88;;;;;;;;;;5360396;26;20003;-38
2024/04/11 14:37:09;;;;;;;49.03;43.78;;;;;;;;;;5362542;26;19999;-43
2024/04/11 14:39:39;;;;;;;46.67;41.90;;;;;;;;;;5362823;26;19989;-38
2024/04/11 14:42:06;;;;;;;48.25;43.20;;;;;;;;;;5362427;26;19989;-42
2024/04/11 14:44:54;;;;;;;48.97;43.97;;;;;;;;;;5362689;26;20001;-39
2024/04/11 14:47:21;;;;;;;49.08;44.22;;;;;;;;;;5362342;26;20097;-37